Time;durP1;ratioP1;P1;durP2;ratioP2;P2;SDS_P1;SDS_P2;PMS_P1;PMS_P2;Temp;Humidity;BMP_temperature;BMP_pressure;BME280_temperature;BME280_humidity;BME280_pressure;Samples;Min_cycle;Max_cycle;Signal;HPM_P1;HPM_P2
2022/12/11 00:01:24;;;;;;;75.22;24.33;;;;;;;;;;5028455;28;20030;-81
2022/12/11 00:03:49;;;;;;;62.58;23.05;;;1.50;99.90;;;;;;5007500;28;20030;-79
2022/12/11 00:06:18;;;;;;;70.45;24.23;;;1.50;99.90;;;;;;5414207;23;20330;-77
2022/12/11 00:08:44;;;;;;;59.90;22.80;;;1.50;99.90;;;;;;5020680;28;20026;-76
2022/12/11 00:11:14;;;;;;;62.67;22.27;;;1.50;99.90;;;;;;5019111;28;20240;-77
2022/12/11 00:13:41;;;;;;;65.05;20.73;;;1.50;99.90;;;;;;5021205;28;20335;-76
2022/12/11 00:16:07;;;;;;;59.75;23.20;;;1.50;99.90;;;;;;5019474;28;20121;-76
2022/12/11 00:18:33;;;;;;;64.72;24.92;;;1.40;99.90;;;;;;5020067;28;20076;-77
2022/12/11 00:21:01;;;;;;;53.40;22.00;;;1.50;99.90;;;;;;5020961;28;20417;-77
2022/12/11 00:23:27;;;;;;;61.75;22.42;;;1.50;99.90;;;;;;5020462;28;20021;-77
2022/12/11 00:25:53;;;;;;;62.17;22.50;;;1.50;99.90;;;;;;5037284;28;20041;-77
2022/12/11 00:28:18;;;;;;;58.00;21.67;;;1.50;99.90;;;;;;5037373;28;20029;-76
2022/12/11 00:30:45;;;;;;;52.05;22.17;;;1.50;99.90;;;;;;5037184;28;20057;-76
2022/12/11 00:33:12;;;;;;;53.72;21.48;;;1.60;99.90;;;;;;5019162;28;20441;-76
2022/12/11 00:35:42;;;;;;;51.75;21.40;;;1.60;99.90;;;;;;5017798;28;20056;-76
2022/12/11 00:38:08;;;;;;;52.70;20.17;;;1.60;99.90;;;;;;5019333;28;20033;-76
2022/12/11 00:40:35;;;;;;;48.40;19.83;;;1.60;99.90;;;;;;5036578;28;20167;-76
2022/12/11 00:43:01;;;;;;;53.38;20.05;;;1.80;99.90;;;;;;5019784;28;20053;-76
2022/12/11 00:45:43;;;;;;;47.00;19.88;;;1.80;99.90;;;;;;5038065;28;20450;-76
2022/12/11 00:48:10;;;;;;;41.40;18.10;;;1.60;99.90;;;;;;5036700;28;20029;-75
2022/12/11 00:50:36;;;;;;;46.10;19.50;;;1.60;99.90;;;;;;5018794;28;20078;-76
2022/12/11 00:53:03;;;;;;;42.38;18.73;;;1.60;99.90;;;;;;5036173;28;20045;-75
2022/12/11 00:55:29;;;;;;;41.55;18.25;;;1.60;99.90;;;;;;5018948;28;20044;-75
2022/12/11 00:57:55;;;;;;;51.50;19.02;;;1.60;99.90;;;;;;5034967;28;20038;-75
2022/12/11 01:00:21;;;;;;;44.15;17.73;;;1.60;99.90;;;;;;5034673;28;20370;-75
2022/12/11 01:02:48;;;;;;;45.83;18.52;;;1.60;99.90;;;;;;5036306;28;20021;-75
2022/12/11 01:05:14;;;;;;;43.58;18.90;;;1.60;99.90;;;;;;5018647;28;20029;-74
2022/12/11 01:07:40;;;;;;;40.90;17.75;;;1.60;99.90;;;;;;5035306;28;20072;-74
2022/12/11 01:10:24;;;;;;;41.28;17.60;;;1.60;99.90;;;;;;5035878;28;20030;-74
2022/12/11 01:13:01;;;;;;;44.33;18.13;;;1.60;99.90;;;;;;5035261;28;20408;-74
2022/12/11 01:15:31;;;;;;;43.00;19.25;;;1.60;99.90;;;;;;5034961;28;20033;-74
2022/12/11 01:17:57;;;;;;;46.58;19.13;;;1.60;99.90;;;;;;5034221;28;20034;-75
2022/12/11 01:20:23;;;;;;;44.42;18.45;;;1.60;99.90;;;;;;5035724;28;20027;-74
2022/12/11 01:22:58;;;;;;;45.35;21.20;;;1.60;99.90;;;;;;5034675;28;20025;-75
2022/12/11 01:25:24;;;;;;;43.83;19.88;;;1.60;99.90;;;;;;5036444;28;20052;-74
2022/12/11 01:27:52;;;;;;;49.65;18.38;;;1.50;99.90;;;;;;5034604;28;20034;-74
2022/12/11 01:30:19;;;;;;;44.58;19.42;;;1.50;99.90;;;;;;5036406;28;20039;-74
2022/12/11 01:32:45;;;;;;;41.47;17.95;;;1.50;99.90;;;;;;5034579;28;20104;-74
2022/12/11 01:35:11;;;;;;;38.60;17.23;;;1.40;99.90;;;;;;5034657;28;20038;-74
2022/12/11 01:37:37;;;;;;;45.05;18.92;;;1.40;99.90;;;;;;5035688;28;20060;-74
2022/12/11 01:40:05;;;;;;;43.28;18.90;;;1.40;99.90;;;;;;5033938;28;20385;-74
2022/12/11 01:42:32;;;;;;;45.40;18.02;;;1.40;99.90;;;;;;5033909;28;20119;-73
2022/12/11 01:45:31;;;;;;;40.45;16.70;;;1.40;99.90;;;;;;5033983;28;20036;-73
2022/12/11 01:47:59;;;;;;;;;;;1.40;99.90;;;;;;5036209;28;20064;-73
2022/12/11 01:50:26;;;;;;;43.28;17.80;;;1.50;99.90;;;;;;5037228;28;19912;-73
2022/12/11 01:52:52;;;;;;;39.78;17.05;;;1.40;99.90;;;;;;5037241;28;20040;-73
2022/12/11 01:55:19;;;;;;;43.75;18.52;;;1.40;99.90;;;;;;5036023;28;20107;-73
2022/12/11 01:57:48;;;;;;;34.15;15.98;;;1.40;99.90;;;;;;5036893;28;20117;-72
2022/12/11 02:00:14;;;;;;;;;;;1.40;99.90;;;;;;5035681;28;20053;-73
2022/12/11 02:02:40;;;;;;;34.92;15.77;;;1.40;99.90;;;;;;5036031;28;19974;-72
2022/12/11 02:05:06;;;;;;;38.67;17.55;;;1.40;99.90;;;;;;5034014;28;20034;-72
2022/12/11 02:07:38;;;;;;;36.35;15.60;;;1.40;99.90;;;;;;5034906;28;20516;-72
2022/12/11 02:10:05;;;;;;;40.20;16.95;;;1.40;99.90;;;;;;5034664;28;20366;-72
2022/12/11 02:12:58;;;;;;;36.53;16.02;;;1.40;99.90;;;;;;5034637;28;20029;-72
2022/12/11 02:15:36;;;;;;;32.90;15.40;;;1.40;99.90;;;;;;4994030;28;20037;-71
2022/12/11 02:18:08;;;;;;;35.15;16.08;;;1.40;99.90;;;;;;5034677;28;20037;-72
2022/12/11 02:21:04;;;;;;;36.17;16.05;;;1.40;99.90;;;;;;5034230;28;20030;-72
2022/12/11 02:23:57;;;;;;;35.85;16.60;;;1.40;99.90;;;;;;5034777;28;20028;-72
2022/12/11 02:26:46;;;;;;;36.65;16.15;;;1.40;99.90;;;;;;5034792;28;20063;-72
2022/12/11 02:29:32;;;;;;;37.92;16.67;;;1.30;99.90;;;;;;4999974;28;20559;-72
2022/12/11 02:32:15;;;;;;;37.53;16.42;;;1.30;99.90;;;;;;5037379;28;20037;-72
2022/12/11 02:34:48;;;;;;;38.53;14.43;;;1.30;99.90;;;;;;5036158;28;20072;-72
2022/12/11 02:37:18;;;;;;;31.80;14.90;;;1.30;99.90;;;;;;5033975;28;20053;-72
2022/12/11 02:39:45;;;;;;;31.80;14.07;;;1.30;99.90;;;;;;5034280;28;20037;-71
2022/12/11 02:42:13;;;;;;;33.75;14.73;;;1.30;99.90;;;;;;5033765;28;20033;-72
2022/12/11 02:44:39;;;;;;;29.77;13.30;;;1.30;99.90;;;;;;5033466;28;20104;-71
2022/12/11 02:47:10;;;;;;;29.77;14.45;;;1.30;99.90;;;;;;5032580;28;20033;-71
2022/12/11 02:49:36;;;;;;;31.10;13.25;;;1.20;99.90;;;;;;5032343;28;20061;-71
2022/12/11 02:52:04;;;;;;;32.17;14.52;;;1.30;99.90;;;;;;5032515;28;20026;-72
2022/12/11 02:54:33;;;;;;;29.52;14.73;;;1.20;99.90;;;;;;5033810;28;20029;-71
2022/12/11 02:57:10;;;;;;;;;;;1.30;99.90;;;;;;5034119;28;20381;-71
2022/12/11 02:59:39;;;;;;;25.13;11.97;;;1.20;99.90;;;;;;5035296;28;19909;-72
2022/12/11 03:02:05;;;;;;;;;;;1.20;99.90;;;;;;5038114;28;20018;-71
2022/12/11 03:04:33;;;;;;;31.23;13.50;;;1.20;99.90;;;;;;5036563;28;20250;-71
2022/12/11 03:07:10;;;;;;;26.85;11.63;;;1.20;99.90;;;;;;5035686;28;20049;-71
2022/12/11 03:09:38;;;;;;;26.23;12.48;;;1.50;99.90;;;;;;5036468;28;20107;-71
2022/12/11 03:12:05;;;;;;;25.98;11.95;;;1.30;99.90;;;;;;5034983;28;20492;-71
2022/12/11 03:14:31;;;;;;;24.63;11.45;;;1.30;99.90;;;;;;5036883;28;20032;-71
2022/12/11 03:17:13;;;;;;;19.75;9.52;;;1.40;99.90;;;;;;5035422;28;20033;-71
2022/12/11 03:19:54;;;;;;;24.20;11.00;;;1.30;99.90;;;;;;5036074;28;20389;-71
2022/12/11 03:22:42;;;;;;;21.38;10.15;;;1.30;99.90;;;;;;5035050;28;20022;-71
2022/12/11 03:25:22;;;;;;;19.27;7.63;;;1.30;99.90;;;;;;5034189;28;20045;-71
2022/12/11 03:28:06;;;;;;;18.77;9.25;;;1.30;99.90;;;;;;5035160;28;20033;-72
2022/12/11 03:30:35;;;;;;;19.77;8.82;;;1.30;99.90;;;;;;5034890;28;20065;-71
2022/12/11 03:33:05;;;;;;;21.10;9.23;;;1.30;99.90;;;;;;5034817;28;20048;-72
2022/12/11 03:35:45;;;;;;;21.85;9.25;;;1.40;99.90;;;;;;5034891;28;20041;-72
2022/12/11 03:38:17;;;;;;;20.52;9.05;;;1.40;99.90;;;;;;5034482;28;20045;-72
2022/12/11 03:40:47;;;;;;;18.67;9.20;;;1.40;99.90;;;;;;5034552;28;20025;-72
2022/12/11 03:43:15;;;;;;;18.60;9.65;;;1.30;99.90;;;;;;5034691;28;20025;-72
2022/12/11 03:45:42;;;;;;;18.55;9.07;;;1.60;99.90;;;;;;5034398;28;20022;-72
2022/12/11 03:48:09;;;;;;;27.27;10.02;;;1.60;99.90;;;;;;5035344;28;20033;-73
2022/12/11 03:50:36;;;;;;;19.85;9.68;;;1.30;99.90;;;;;;5034477;28;20059;-72
2022/12/11 03:53:03;;;;;;;22.23;10.18;;;1.50;99.90;;;;;;5035559;28;20029;-72
2022/12/11 03:55:31;;;;;;;20.50;10.32;;;1.50;99.90;;;;;;5035209;28;20458;-73
2022/12/11 03:57:57;;;;;;;20.63;10.15;;;1.30;99.90;;;;;;5035419;28;20034;-73
2022/12/11 04:00:23;;;;;;;27.23;11.80;;;1.40;99.90;;;;;;5035569;28;20438;-73
2022/12/11 04:03:11;;;;;;;20.95;10.73;;;1.30;99.90;;;;;;5034187;28;20095;-72
2022/12/11 04:05:35;;;;;;;22.10;11.52;;;1.30;99.90;;;;;;5035096;28;20087;-73
2022/12/11 04:08:41;;;;;;;24.02;11.43;;;1.30;99.90;;;;;;5071151;28;20135;-74
2022/12/11 04:15:00;;;;;;;25.58;12.30;;;1.20;99.90;;;;;;5071263;28;20487;-75
2022/12/11 04:16:36;;;;;;;24.30;11.90;;;1.20;99.90;;;;;;5070838;28;20086;-75
2022/12/11 04:24:31;;;;;;;27.63;13.32;;;1.20;99.90;;;;;;5071007;28;20107;-75
2022/12/11 04:26:57;;;;;;;27.00;12.30;;;1.20;99.90;;;;;;5071416;28;20032;-74
2022/12/11 04:29:23;;;;;;;23.00;11.68;;;1.20;99.90;;;;;;5070631;28;20083;-75
2022/12/11 04:31:49;;;;;;;26.58;12.80;;;1.20;99.90;;;;;;5071380;28;20108;-74
2022/12/11 04:34:15;;;;;;;25.45;12.75;;;1.20;99.90;;;;;;5069526;28;20032;-74
2022/12/11 04:36:41;;;;;;;26.23;12.27;;;1.30;99.90;;;;;;5070835;28;20041;-74
2022/12/11 04:39:07;;;;;;;24.33;11.45;;;1.20;99.90;;;;;;5069444;28;20027;-75
2022/12/11 04:41:34;;;;;;;22.95;11.80;;;1.10;99.90;;;;;;5069571;28;20485;-74
2022/12/11 04:44:00;;;;;;;21.73;11.05;;;1.10;99.90;;;;;;5070705;28;20056;-75
2022/12/11 04:46:25;;;;;;;20.70;11.02;;;1.00;99.90;;;;;;5069551;28;20062;-75
2022/12/11 04:48:52;;;;;;;22.02;11.45;;;1.10;99.90;;;;;;5069603;28;20025;-74
2022/12/11 04:51:18;;;;;;;20.73;9.85;;;0.90;99.90;;;;;;5070424;28;20021;-74
2022/12/11 04:53:45;;;;;;;21.20;10.10;;;0.90;99.90;;;;;;5069364;28;20057;-74
2022/12/11 04:56:13;;;;;;;20.88;10.20;;;0.90;99.90;;;;;;5070366;28;20024;-73
2022/12/11 04:58:41;;;;;;;19.27;9.88;;;0.80;99.90;;;;;;5069055;28;20370;-76
2022/12/11 05:01:12;;;;;;;21.80;10.63;;;1.20;99.90;;;;;;5069144;28;20499;-76
2022/12/11 05:03:38;;;;;;;23.20;10.48;;;0.60;99.90;;;;;;5068995;28;20529;-77
2022/12/11 05:06:04;;;;;;;23.00;10.55;;;0.90;99.90;;;;;;5070480;28;20484;-77
2022/12/11 05:08:29;;;;;;;23.17;11.48;;;0.50;99.90;;;;;;5070301;28;20118;-76
2022/12/11 05:11:01;;;;;;;25.23;11.73;;;0.60;99.90;;;;;;5069786;28;20060;-76
2022/12/11 05:13:28;;;;;;;25.17;11.95;;;1.30;99.90;;;;;;5068904;28;20595;-76
2022/12/11 05:15:54;;;;;;;24.33;12.05;;;0.80;99.90;;;;;;5069117;28;20025;-77
2022/12/11 05:18:20;;;;;;;28.33;12.98;;;0.30;99.90;;;;;;5064917;28;20047;-77
2022/12/11 05:20:57;;;;;;;26.05;12.95;;;0.30;99.90;;;;;;5056635;28;20029;-77
2022/12/11 05:23:24;;;;;;;24.63;11.97;;;1.20;99.90;;;;;;5055827;28;20041;-77
2022/12/11 05:25:57;;;;;;;26.05;12.35;;;0.30;99.90;;;;;;5056807;28;20260;-77
2022/12/11 05:28:25;;;;;;;23.58;11.73;;;0.30;99.90;;;;;;5055158;28;20044;-77
2022/12/11 05:30:59;;;;;;;27.27;12.05;;;0.30;99.90;;;;;;5057633;28;20035;-77
2022/12/11 05:33:25;;;;;;;25.58;12.05;;;0.40;99.90;;;;;;5059740;28;20025;-78
2022/12/11 05:35:51;;;;;;;25.63;12.57;;;0.80;99.90;;;;;;5058264;28;20021;-77
2022/12/11 05:38:17;;;;;;;25.73;11.98;;;1.00;99.90;;;;;;5058514;28;20029;-78
2022/12/11 05:40:43;;;;;;;28.55;13.32;;;1.20;99.90;;;;;;5057112;28;20055;-78
2022/12/11 05:43:09;;;;;;;28.30;13.63;;;0.50;99.90;;;;;;5056631;28;20412;-78
2022/12/11 05:45:34;;;;;;;26.42;12.85;;;0.40;99.90;;;;;;5056272;28;20025;-77
2022/12/11 05:48:00;;;;;;;25.52;12.60;;;0.50;99.90;;;;;;5055866;28;20033;-78
2022/12/11 05:50:25;;;;;;;27.25;12.95;;;0.80;99.90;;;;;;5055511;28;20468;-78
2022/12/11 05:52:51;;;;;;;29.92;13.60;;;1.00;99.90;;;;;;5055980;28;20461;-78
2022/12/11 05:55:17;;;;;;;26.77;13.20;;;0.80;99.90;;;;;;5055012;28;20021;-78
2022/12/11 05:57:43;;;;;;;31.67;14.88;;;0.50;99.90;;;;;;5054952;28;20037;-78
2022/12/11 06:00:11;;;;;;;27.58;13.30;;;0.80;99.90;;;;;;5054891;28;20501;-77
2022/12/11 06:02:37;;;;;;;25.40;13.02;;;0.60;99.90;;;;;;5054739;28;20465;-77
2022/12/11 06:05:02;;;;;;;23.42;11.95;;;0.60;99.90;;;;;;5056576;28;20195;-77
2022/12/11 06:07:28;;;;;;;24.92;12.77;;;0.60;99.90;;;;;;5054422;28;20044;-77
2022/12/11 06:09:54;;;;;;;25.70;12.50;;;0.60;99.90;;;;;;5054651;28;20419;-78
2022/12/11 06:12:19;;;;;;;21.60;11.10;;;0.70;99.90;;;;;;5055809;28;20025;-77
2022/12/11 06:14:45;;;;;;;18.20;9.88;;;0.60;99.90;;;;;;5055633;28;20029;-78
2022/12/11 06:17:11;;;;;;;22.42;10.93;;;0.60;99.90;;;;;;5055878;28;20033;-78
2022/12/11 06:19:36;;;;;;;19.85;10.75;;;1.00;99.90;;;;;;5071054;28;20055;-78
2022/12/11 06:22:02;;;;;;;21.75;10.32;;;0.70;99.90;;;;;;5054273;28;20075;-78
2022/12/11 06:24:28;;;;;;;22.38;12.05;;;0.80;99.90;;;;;;5054158;28;20461;-78
2022/12/11 06:26:53;;;;;;;18.02;9.80;;;0.70;99.90;;;;;;5053988;28;20036;-79
2022/12/11 06:29:19;;;;;;;19.08;10.55;;;0.80;99.90;;;;;;5054859;28;20028;-78
2022/12/11 06:31:45;;;;;;;22.27;10.45;;;0.70;99.90;;;;;;5053566;28;20025;-79
2022/12/11 06:34:12;;;;;;;23.50;11.40;;;0.70;99.90;;;;;;5054487;28;20074;-78
2022/12/11 06:36:38;;;;;;;19.40;10.48;;;0.70;99.90;;;;;;5054668;28;20039;-78
2022/12/11 06:39:04;;;;;;;20.85;9.77;;;0.80;99.90;;;;;;5054830;28;20025;-79
2022/12/11 06:41:29;;;;;;;17.77;9.38;;;0.70;99.90;;;;;;5054865;28;20025;-80
2022/12/11 06:43:55;;;;;;;20.42;9.70;;;1.10;99.90;;;;;;5055039;28;20068;-79
2022/12/11 06:46:20;;;;;;;18.60;9.85;;;0.70;99.90;;;;;;5057709;28;20024;-81
2022/12/11 06:48:47;;;;;;;18.80;9.65;;;1.70;99.90;;;;;;5056415;28;20044;-82
2022/12/11 06:51:19;;;;;;;20.33;9.95;;;1.00;99.90;;;;;;5058614;28;20527;-81
2022/12/11 06:56:16;;;;;;;19.42;9.73;;;0.70;99.90;;;;;;5082469;28;20415;-80
2022/12/11 06:58:43;;;;;;;18.42;9.50;;;0.70;99.90;;;;;;5058884;28;20020;-79
2022/12/11 07:01:22;;;;;;;16.17;8.32;;;0.70;99.90;;;;;;5157700;22;20055;-81
2022/12/11 07:06:23;;;;;;;18.70;8.65;;;0.70;99.90;;;;;;5080184;28;20056;-81
2022/12/11 07:08:49;;;;;;;17.88;9.00;;;0.70;99.90;;;;;;5062029;28;20055;-80
2022/12/11 07:11:16;;;;;;;17.85;8.85;;;1.20;99.90;;;;;;5057728;28;20029;-82
2022/12/11 07:13:43;;;;;;;17.33;8.88;;;1.00;99.90;;;;;;5062678;28;20548;-78
2022/12/11 07:16:10;;;;;;;16.05;8.30;;;0.70;99.90;;;;;;5076917;28;20384;-79
2022/12/11 07:21:12;;;;;;;16.95;8.18;;;0.60;99.90;;;;;;5054136;28;20045;-83
2022/12/11 07:23:38;;;;;;;14.23;8.45;;;0.70;99.90;;;;;;5061964;28;20028;-82
2022/12/11 07:26:11;;;;;;;15.82;8.82;;;0.70;99.90;;;;;;5039308;28;20519;-83
2022/12/11 07:28:37;;;;;;;17.30;8.35;;;0.70;99.90;;;;;;5041011;28;20040;-82
2022/12/11 07:31:12;;;;;;;20.83;10.48;;;0.70;99.90;;;;;;5041633;28;20127;-81
2022/12/11 07:38:48;;;;;;;21.88;10.30;;;0.80;99.90;;;;;;5162706;22;20060;-82
2022/12/11 07:41:15;;;;;;;19.58;10.50;;;0.80;99.90;;;;;;5265542;22;20067;-84
2022/12/11 07:43:42;;;;;;;17.90;9.48;;;2.20;99.90;;;;;;5076639;28;20020;-82
2022/12/11 07:46:17;;;;;;;18.02;9.13;;;0.80;99.90;;;;;;5060544;28;20021;-80
2022/12/11 07:48:44;;;;;;;20.08;9.73;;;1.20;99.90;;;;;;5083089;28;20044;-83
2022/12/11 07:51:15;;;;;;;14.35;8.63;;;0.80;99.90;;;;;;5244609;22;20101;-77
2022/12/11 07:53:41;;;;;;;17.58;9.07;;;0.80;99.90;;;;;;5057742;28;20136;-81
2022/12/11 07:56:07;;;;;;;16.45;8.55;;;0.80;99.90;;;;;;5056996;28;20025;-79
2022/12/11 07:58:34;;;;;;;18.77;8.70;;;0.80;99.90;;;;;;5057083;28;20035;-80
2022/12/11 08:01:00;;;;;;;17.42;7.90;;;0.80;99.90;;;;;;5069263;28;20029;-84
2022/12/11 08:03:26;;;;;;;17.27;8.75;;;0.80;99.90;;;;;;5081910;28;20373;-83
2022/12/11 08:05:52;;;;;;;17.90;8.73;;;0.80;99.90;;;;;;5060646;28;20032;-81
2022/12/11 08:08:18;;;;;;;19.55;9.90;;;0.80;99.90;;;;;;5061129;28;20032;-75
2022/12/11 08:10:44;;;;;;;16.13;9.50;;;0.90;99.90;;;;;;5074135;28;20103;-76
2022/12/11 08:13:10;;;;;;;15.05;8.45;;;0.90;99.90;;;;;;5074690;28;20031;-80
2022/12/11 08:15:37;;;;;;;15.68;8.10;;;1.00;99.90;;;;;;5075550;28;20028;-78
2022/12/11 08:18:04;;;;;;;16.83;8.85;;;1.00;99.90;;;;;;5076910;28;20032;-75
2022/12/11 08:20:29;;;;;;;15.00;7.90;;;1.00;99.90;;;;;;5057328;28;20082;-75
2022/12/11 08:22:56;;;;;;;13.73;8.50;;;1.00;99.90;;;;;;5074708;28;20025;-78
2022/12/11 08:25:21;;;;;;;19.23;9.25;;;1.00;99.90;;;;;;5076406;28;20059;-76
2022/12/11 08:27:47;;;;;;;12.00;7.40;;;1.10;99.90;;;;;;5076201;28;20384;-80
2022/12/11 08:30:13;;;;;;;15.15;7.60;;;1.10;99.90;;;;;;5076129;28;20104;-81
2022/12/11 08:32:39;;;;;;;17.33;8.10;;;1.10;99.90;;;;;;5057729;28;20484;-75
2022/12/11 08:35:05;;;;;;;17.02;7.88;;;1.30;99.90;;;;;;5056455;28;20028;-78
2022/12/11 08:37:30;;;;;;;17.15;8.13;;;1.40;99.90;;;;;;5075363;28;20035;-77
2022/12/11 08:39:56;;;;;;;12.63;7.05;;;1.70;99.90;;;;;;5078019;28;20108;-79
2022/12/11 08:42:22;;;;;;;12.60;7.03;;;2.00;99.90;;;;;;5077522;28;20024;-79
2022/12/11 08:44:47;;;;;;;14.63;7.50;;;2.00;99.90;;;;;;5078323;28;20028;-59
2022/12/11 08:47:14;;;;;;;12.90;7.15;;;2.20;99.90;;;;;;5055653;28;20043;-77
2022/12/11 08:49:40;;;;;;;11.25;6.68;;;2.40;99.90;;;;;;5074197;28;20072;-79
2022/12/11 08:52:05;;;;;;;13.80;7.60;;;2.30;99.90;;;;;;5055749;28;20089;-75
2022/12/11 08:54:31;;;;;;;14.02;7.00;;;2.10;99.90;;;;;;5075936;28;20024;-76
2022/12/11 08:56:57;;;;;;;13.35;7.25;;;2.10;99.90;;;;;;5059736;28;20028;-75
2022/12/11 08:59:24;;;;;;;12.68;7.35;;;2.40;99.90;;;;;;5077687;28;20021;-75
2022/12/11 09:01:50;;;;;;;12.65;7.10;;;1.90;99.90;;;;;;5060590;28;20532;-76
2022/12/11 09:04:15;;;;;;;11.98;7.78;;;2.20;99.90;;;;;;5060478;28;20119;-76
2022/12/11 09:06:41;;;;;;;11.45;7.00;;;2.20;99.90;;;;;;5077601;28;20480;-76
2022/12/11 09:09:07;;;;;;;12.27;6.95;;;1.90;99.90;;;;;;5059504;28;20174;-76
2022/12/11 09:11:35;;;;;;;9.70;6.47;;;1.90;99.90;;;;;;5059141;28;20024;-76
2022/12/11 09:14:02;;;;;;;11.35;6.45;;;1.90;99.90;;;;;;5059345;28;20024;-76
2022/12/11 09:16:28;;;;;;;12.27;7.07;;;2.20;99.90;;;;;;5059029;28;20086;-76
2022/12/11 09:18:56;;;;;;;10.95;6.25;;;2.20;99.90;;;;;;5059113;28;20468;-76
2022/12/11 09:21:27;;;;;;;12.27;7.10;;;2.30;99.90;;;;;;5077071;28;20025;-76
2022/12/11 09:23:59;;;;;;;12.80;6.97;;;2.50;99.90;;;;;;5059721;28;20411;-76
2022/12/11 09:26:25;;;;;;;14.25;7.78;;;2.50;99.90;;;;;;5077575;28;20471;-77
2022/12/11 09:28:52;;;;;;;14.23;8.00;;;2.40;99.90;;;;;;5060553;28;20529;-76
2022/12/11 09:31:22;;;;;;;12.60;7.07;;;2.70;99.90;;;;;;5061056;28;20025;-77
2022/12/11 09:33:48;;;;;;;14.23;7.75;;;3.10;99.90;;;;;;5076947;28;20024;-74
2022/12/11 09:36:14;;;;;;;14.77;8.75;;;3.50;99.90;;;;;;5076354;28;20032;-75
2022/12/11 09:38:42;;;;;;;15.93;7.22;;;3.60;99.90;;;;;;5058751;28;20032;-75
2022/12/11 09:41:39;;;;;;;13.00;7.65;;;3.60;99.90;;;;;;5059387;28;20021;-75
2022/12/11 09:44:32;;;;;;;13.23;8.52;;;3.60;99.90;;;;;;5072330;28;20061;-75
2022/12/11 09:46:58;;;;;;;14.07;7.95;;;3.40;99.90;;;;;;5059585;28;20415;-75
2022/12/11 09:49:36;;;;;;;13.38;8.25;;;2.70;99.90;;;;;;5077395;28;20460;-76
2022/12/11 09:52:16;;;;;;;10.95;6.88;;;2.50;99.90;;;;;;5077032;28;20045;-75
2022/12/11 09:55:04;;;;;;;13.90;7.93;;;2.30;99.90;;;;;;5076766;28;20089;-76
2022/12/11 09:57:59;;;;;;;13.70;7.38;;;2.70;99.90;;;;;;5078362;28;20037;-76
2022/12/11 10:00:48;;;;;;;12.55;7.70;;;3.20;99.90;;;;;;5059649;28;20510;-76
2022/12/11 10:03:26;;;;;;;12.48;7.30;;;3.80;99.90;;;;;;5079303;28;20479;-77
2022/12/11 10:05:55;;;;;;;9.90;6.63;;;3.80;99.90;;;;;;5060058;28;20115;-76
2022/12/11 10:08:31;;;;;;;10.00;5.80;;;3.90;99.90;;;;;;5077282;28;20043;-76
2022/12/11 10:11:02;;;;;;;11.70;6.50;;;3.60;99.90;;;;;;5077592;28;20037;-77
2022/12/11 10:13:36;;;;;;;10.68;6.22;;;3.60;99.90;;;;;;5059443;28;20377;-76
2022/12/11 10:16:24;;;;;;;10.00;5.80;;;3.40;99.90;;;;;;5076360;28;20376;-77
2022/12/11 10:19:16;;;;;;;10.60;6.15;;;3.00;99.90;;;;;;5058346;28;20028;-78
2022/12/11 10:21:42;;;;;;;9.63;5.80;;;2.80;99.90;;;;;;5076262;28;20456;-78
2022/12/11 10:28:14;;;;;;;7.03;4.75;;;2.70;99.90;;;;;;5094987;28;20036;-78
2022/12/11 10:34:55;;;;;;;9.45;5.05;;;2.40;99.90;;;;;;5095733;28;20023;-78
2022/12/11 10:45:11;;;;;;;9.00;5.28;;;2.60;99.90;;;;;;5094436;28;20464;-78
2022/12/11 10:52:15;;;;;;;11.32;5.97;;;2.40;99.90;;;;;;5096051;28;20204;-78
2022/12/11 10:59:07;;;;;;;9.43;5.28;;;2.40;99.90;;;;;;5095343;28;20074;-79
2022/12/11 11:05:14;;;;;;;10.57;5.60;;;2.20;99.90;;;;;;5095282;28;20031;-77
2022/12/11 11:07:40;;;;;;;9.05;5.35;;;2.10;99.90;;;;;;5077193;28;20032;-78
2022/12/11 11:10:49;;;;;;;10.05;5.38;;;2.10;99.90;;;;;;5076454;28;20032;-77
2022/12/11 11:16:47;;;;;;;9.95;5.32;;;2.20;99.90;;;;;;4992529;28;20072;-78
2022/12/11 11:22:54;;;;;;;15.40;6.10;;;2.50;99.90;;;;;;4993081;28;20096;-79
2022/12/11 11:25:58;;;;;;;11.38;5.22;;;2.70;99.90;;;;;;4993085;28;20047;-78
2022/12/11 11:28:28;;;;;;;10.75;5.57;;;2.50;99.90;;;;;;4993205;28;20061;-79
2022/12/11 11:31:34;;;;;;;9.77;5.63;;;2.30;99.90;;;;;;4993183;28;20042;-79
2022/12/11 11:34:09;;;;;;;9.85;5.38;;;2.30;99.90;;;;;;4976615;28;20367;-79
2022/12/11 11:36:36;;;;;;;15.60;5.53;;;2.00;99.90;;;;;;4993091;28;20042;-79
2022/12/11 11:39:04;;;;;;;10.57;5.97;;;2.00;99.90;;;;;;4992970;28;20033;-78
2022/12/11 11:56:03;;;;;;;9.75;5.45;;;1.80;99.90;;;;;;5032412;28;20049;-78
2022/12/11 11:59:25;;;;;;;10.95;4.35;;;1.70;99.90;;;;;;5033894;28;20121;-77
2022/12/11 12:02:47;;;;;;;10.68;5.10;;;1.60;99.90;;;;;;5016209;28;20478;-78
2022/12/11 12:05:14;;;;;;;6.55;4.03;;;1.50;99.90;;;;;;5016374;28;20060;-77
2022/12/11 12:07:51;;;;;;;10.43;4.82;;;1.40;99.90;;;;;;5031889;28;20034;-77
2022/12/11 12:20:49;;;;;;;7.72;4.28;;;2.80;99.90;;;;;;5096355;28;20105;-77
2022/12/11 12:27:00;;;;;;;8.32;5.05;;;2.40;99.90;;;;;;5094573;28;20058;-77
2022/12/11 12:39:45;;;;;;;13.13;4.47;;;1.80;99.90;;;;;;5056389;28;20089;-79
2022/12/11 12:56:20;;;;;;;8.63;4.28;;;1.60;99.90;;;;;;5035366;28;20032;-78
2022/12/11 12:58:49;;;;;;;6.18;4.15;;;1.50;99.90;;;;;;5038581;28;20037;-78
2022/12/11 13:01:27;;;;;;;7.75;4.97;;;1.50;99.90;;;;;;5038521;28;20136;-78
2022/12/11 13:04:03;;;;;;;9.75;4.82;;;1.40;99.90;;;;;;5055437;28;20052;-79
2022/12/11 13:06:51;;;;;;;7.40;4.95;;;1.40;99.90;;;;;;5066591;28;20036;-78
2022/12/11 13:09:55;;;;;;;10.90;6.05;;;1.40;99.90;;;;;;5079773;28;20039;-78
2022/12/11 13:13:05;;;;;;;11.88;6.07;;;1.40;99.90;;;;;;5097936;28;20157;-79
2022/12/11 13:16:05;;;;;;;16.88;8.60;;;1.40;99.90;;;;;;5075650;28;20474;-78
2022/12/11 13:21:35;;;;;;;18.25;9.57;;;1.30;99.90;;;;;;5097591;28;20495;-78
2022/12/11 13:24:14;;;;;;;20.23;10.27;;;1.30;99.90;;;;;;5097538;28;20035;-78
2022/12/11 13:26:40;;;;;;;22.00;10.55;;;1.20;99.90;;;;;;5079284;28;20035;-77
2022/12/11 13:29:36;;;;;;;21.38;10.35;;;1.10;99.90;;;;;;5079445;28;20127;-78
2022/12/11 13:32:21;;;;;;;23.58;11.43;;;1.00;99.90;;;;;;5097202;28;20024;-79
2022/12/11 13:34:56;;;;;;;20.05;10.93;;;0.90;99.90;;;;;;5097873;28;20027;-77
2022/12/11 13:37:33;;;;;;;23.70;12.75;;;0.80;99.90;;;;;;5079149;28;20054;-76
2022/12/11 13:40:04;;;;;;;23.20;11.75;;;0.90;99.90;;;;;;5097121;28;20026;-79
2022/12/11 13:43:02;;;;;;;20.48;11.18;;;0.90;99.90;;;;;;5097067;28;20084;-77
2022/12/11 13:45:43;;;;;;;23.63;11.75;;;0.80;99.90;;;;;;5085031;28;20468;-77
2022/12/11 13:48:30;;;;;;;23.23;12.25;;;0.80;99.90;;;;;;5078912;28;20063;-78
2022/12/11 13:50:56;;;;;;;22.45;11.77;;;0.70;99.90;;;;;;5078630;28;20024;-77
2022/12/11 13:53:23;;;;;;;22.85;11.57;;;0.70;99.90;;;;;;5091902;28;20044;-78
2022/12/11 13:59:24;;;;;;;22.40;11.45;;;0.70;99.90;;;;;;5015585;28;20092;-77
2022/12/11 14:02:22;;;;;;;24.42;12.05;;;0.70;99.90;;;;;;4975608;28;20041;-77
2022/12/11 14:04:52;;;;;;;23.83;11.73;;;0.70;99.90;;;;;;5075770;28;20036;-58
2022/12/11 14:07:31;;;;;;;21.10;11.48;;;1.00;99.90;;;;;;5057786;28;20131;-74
2022/12/11 14:10:06;;;;;;;17.40;10.02;;;1.10;99.90;;;;;;5058451;28;20148;-78
2022/12/11 14:12:32;;;;;;;19.88;10.73;;;0.90;99.90;;;;;;5075960;28;20527;-79
2022/12/11 14:15:01;;;;;;;19.25;10.50;;;0.80;99.90;;;;;;5058249;28;20063;-77
2022/12/11 14:17:32;;;;;;;15.95;8.50;;;0.70;99.90;;;;;;5079613;28;20423;-81
2022/12/11 14:20:01;;;;;;;19.48;10.88;;;0.70;99.90;;;;;;5060767;28;20082;-80
2022/12/11 14:22:29;;;;;;;19.85;10.48;;;0.60;99.90;;;;;;5076908;28;20024;-80
2022/12/11 14:24:57;;;;;;;19.15;10.30;;;0.60;99.90;;;;;;5062060;28;20029;-80
2022/12/11 14:27:25;;;;;;;21.90;11.35;;;0.50;99.90;;;;;;5058774;28;20037;-79
2022/12/11 14:29:51;;;;;;;19.88;11.27;;;0.60;99.90;;;;;;5058482;28;20078;-80
2022/12/11 14:32:28;;;;;;;18.75;9.35;;;0.40;99.90;;;;;;5077004;28;20024;-80
2022/12/11 14:34:54;;;;;;;19.67;10.43;;;0.40;99.90;;;;;;5057666;28;20031;-80
2022/12/11 14:37:21;;;;;;;20.48;11.10;;;0.40;99.90;;;;;;5075508;28;20111;-78
2022/12/11 14:39:51;;;;;;;21.08;11.15;;;0.90;99.90;;;;;;5075146;28;20075;-79
2022/12/11 14:42:44;;;;;;;21.83;10.48;;;0.40;99.90;;;;;;5058766;28;20602;-80
2022/12/11 14:45:39;;;;;;;19.17;10.18;;;0.40;99.90;;;;;;5054706;28;20036;-79
2022/12/11 14:48:15;;;;;;;23.10;10.75;;;0.30;99.90;;;;;;5075196;28;20040;-79
2022/12/11 14:50:48;;;;;;;21.65;11.13;;;0.40;99.90;;;;;;5056891;28;20024;-79
2022/12/11 14:53:28;;;;;;;19.60;10.23;;;0.30;99.90;;;;;;5057990;28;20417;-81
2022/12/11 14:55:56;;;;;;;19.45;10.45;;;0.30;99.90;;;;;;5057845;28;20384;-80
2022/12/11 14:58:28;;;;;;;21.15;10.38;;;0.60;99.90;;;;;;5058765;28;20033;-83
2022/12/11 15:01:03;;;;;;;19.90;9.85;;;0.30;99.90;;;;;;5076873;28;20138;-80